Terminal Aerodrome Forecast
Issued by NWS

Home | Current Version | Previous Version | Text Only | Print | Product List | Glossary Off
Versions: 1 2 3 4 5 6 7 8 9 10 11 12 13 14 15

000
FTUS42 KMHX 151720
TAFPGV
TAF
KPGV 151720Z 1518/1618 05008KT P6SM SCT015 BKN035
     FM160500 04003KT P6SM VCSH OVC070
     FM161400 08010G15KT P6SM VCSH OVC050
      AMD LTD TO CLD VIS AND WIND=

USA.gov is the U.S. government's official web portal to all federal, state and local government web resources and services.